Time;durP1;ratioP1;P1;durP2;ratioP2;P2;SDS_P1;SDS_P2;PMS_P1;PMS_P2;Temp;Humidity;BMP_temperature;BMP_pressure;BME280_temperature;BME280_humidity;BME280_pressure;Samples;Min_cycle;Max_cycle;Signal;HPM_P1;HPM_P2
2022/09/19 00:01:55;;;;;;;8.10;2.93;;;10.80;99.90;;;;;;5105438;28;20472;-81
2022/09/19 00:04:25;;;;;;;7.90;1.67;;;10.80;99.90;;;;;;5113493;28;20440;-82
2022/09/19 00:06:56;;;;;;;7.97;2.10;;;10.80;99.90;;;;;;5117882;28;20516;-81
2022/09/19 00:09:26;;;;;;;3.57;1.67;;;10.80;99.90;;;;;;5118819;28;20447;-82
2022/09/19 00:11:55;;;;;;;3.63;1.43;;;10.80;99.90;;;;;;5114111;28;20526;-83
2022/09/19 00:14:27;;;;;;;5.67;1.70;;;10.80;99.90;;;;;;5110586;28;20444;-82
2022/09/19 00:16:57;;;;;;;7.37;1.97;;;10.80;99.90;;;;;;5110320;28;20520;-82
2022/09/19 00:19:26;;;;;;;5.93;1.87;;;10.70;99.90;;;;;;5109387;28;20440;-82
2022/09/19 00:21:57;;;;;;;3.77;1.60;;;10.80;99.90;;;;;;5108395;28;20557;-81
2022/09/19 00:27:12;;;;;;;4.70;1.43;;;10.70;99.90;;;;;;5109260;28;20902;-81
2022/09/19 00:29:42;;;;;;;5.40;1.83;;;10.70;99.90;;;;;;5105935;28;20546;-82
2022/09/19 00:32:12;;;;;;;3.67;1.10;;;10.70;99.90;;;;;;5105345;28;20472;-82
2022/09/19 00:34:42;;;;;;;4.17;1.67;;;10.80;99.90;;;;;;5108579;28;20490;-82
2022/09/19 00:37:12;;;;;;;5.30;1.53;;;10.70;99.90;;;;;;5109461;28;20485;-83
2022/09/19 00:39:41;;;;;;;6.90;1.53;;;10.70;99.90;;;;;;5114431;28;20428;-82
2022/09/19 00:42:16;;;;;;;6.70;1.37;;;10.70;99.90;;;;;;5113929;28;20480;-83
2022/09/19 00:44:57;;;;;;;5.03;1.30;;;10.70;99.90;;;;;;5113128;28;20511;-81
2022/09/19 00:47:35;;;;;;;5.40;1.43;;;10.70;99.90;;;;;;5112601;28;20471;-82
2022/09/19 00:50:14;;;;;;;4.47;1.47;;;10.70;99.90;;;;;;5113779;28;20432;-83
2022/09/19 00:52:50;;;;;;;8.50;2.47;;;10.70;99.90;;;;;;5115167;28;20883;-81
2022/09/19 00:55:19;;;;;;;3.97;1.67;;;10.70;99.90;;;;;;5111782;28;20455;-82
2022/09/19 00:58:05;;;;;;;7.87;2.00;;;10.70;99.90;;;;;;5111075;28;20506;-82
2022/09/19 01:00:34;;;;;;;6.23;1.70;;;10.70;99.90;;;;;;5113042;28;20420;-83
2022/09/19 01:03:08;;;;;;;6.10;1.70;;;10.70;99.90;;;;;;5112978;28;20455;-82
2022/09/19 01:05:50;;;;;;;7.53;1.87;;;10.70;99.90;;;;;;5110806;28;20509;-82
2022/09/19 01:08:45;;;;;;;6.87;1.67;;;10.70;99.90;;;;;;5112222;28;20416;-82
2022/09/19 01:11:47;;;;;;;3.20;1.30;;;10.80;99.90;;;;;;5112317;28;20448;-81
2022/09/19 01:14:30;;;;;;;5.93;2.00;;;10.70;99.90;;;;;;5110087;28;20436;-81
2022/09/19 01:17:06;;;;;;;3.90;1.67;;;10.80;99.90;;;;;;5110219;28;20447;-81
2022/09/19 01:20:12;;;;;;;6.33;1.30;;;10.80;99.90;;;;;;5109706;28;20428;-81
2022/09/19 01:22:50;;;;;;;4.57;1.47;;;10.80;99.90;;;;;;5108816;28;20464;-82
2022/09/19 01:25:26;;;;;;;5.03;1.70;;;10.80;99.90;;;;;;5109685;28;20962;-81
2022/09/19 01:28:18;;;;;;;5.17;1.67;;;10.90;99.90;;;;;;5109192;28;20841;-81
2022/09/19 01:33:41;;;;;;;5.30;1.90;;;10.90;99.90;;;;;;5108603;28;20498;-82
2022/09/19 01:36:14;;;;;;;3.40;1.73;;;10.90;99.90;;;;;;5109469;28;20953;-83
2022/09/19 01:38:46;;;;;;;5.23;1.40;;;10.90;99.90;;;;;;5109353;28;20452;-82
2022/09/19 01:41:19;;;;;;;6.40;1.37;;;11.00;99.90;;;;;;5108953;28;20463;-82
2022/09/19 01:43:50;;;;;;;6.83;1.80;;;11.00;99.90;;;;;;5108903;28;20493;-83
2022/09/19 01:46:26;;;;;;;5.87;1.50;;;11.00;99.90;;;;;;5108543;28;20894;-82
2022/09/19 01:49:06;;;;;;;3.70;1.40;;;11.10;99.90;;;;;;5105498;28;20440;-82
2022/09/19 01:51:44;;;;;;;4.30;1.47;;;11.10;99.90;;;;;;5106437;28;20470;-82
2022/09/19 01:54:29;;;;;;;5.90;1.90;;;11.10;99.90;;;;;;5106585;28;20957;-82
2022/09/19 01:57:13;;;;;;;4.17;1.40;;;11.20;99.90;;;;;;5108780;28;20998;-82
2022/09/19 02:00:00;;;;;;;4.33;1.37;;;11.20;99.90;;;;;;5106950;28;20496;-82
2022/09/19 02:02:39;;;;;;;6.60;1.57;;;11.20;99.90;;;;;;5108140;28;20459;-82
2022/09/19 02:05:13;;;;;;;4.70;1.67;;;11.20;99.90;;;;;;5105666;28;20444;-82
2022/09/19 02:07:47;;;;;;;4.30;1.63;;;11.30;99.90;;;;;;5105762;28;20439;-81
2022/09/19 02:10:20;;;;;;;6.00;2.00;;;11.30;99.90;;;;;;5105609;28;20478;-82
2022/09/19 02:12:53;;;;;;;8.80;2.20;;;11.40;99.90;;;;;;5105091;28;20476;-81
2022/09/19 02:15:46;;;;;;;5.73;1.53;;;11.40;99.90;;;;;;5105591;28;20493;-82
2022/09/19 02:18:22;;;;;;;5.27;1.93;;;11.40;99.90;;;;;;5105958;28;20440;-81
2022/09/19 02:20:54;;;;;;;6.80;2.30;;;11.40;99.90;;;;;;5105007;28;20435;-82
2022/09/19 02:23:28;;;;;;;3.83;1.70;;;11.40;99.90;;;;;;5107491;28;20439;-81
2022/09/19 02:26:01;;;;;;;6.27;2.13;;;11.40;99.90;;;;;;5105887;28;20435;-81
2022/09/19 02:28:38;;;;;;;7.30;1.80;;;11.50;99.90;;;;;;5106280;28;20433;-82
2022/09/19 02:31:13;;;;;;;4.20;1.40;;;11.40;99.90;;;;;;5106215;28;20789;-81
2022/09/19 02:33:46;;;;;;;6.40;1.90;;;11.50;99.90;;;;;;5105768;28;20456;-81
2022/09/19 02:36:26;;;;;;;5.60;1.50;;;11.50;99.90;;;;;;5105006;28;20440;-83
2022/09/19 02:39:08;;;;;;;5.37;1.33;;;11.50;99.90;;;;;;5105249;28;20502;-81
2022/09/19 02:42:09;;;;;;;4.57;1.60;;;11.50;99.90;;;;;;5104787;28;20555;-81
2022/09/19 02:44:52;;;;;;;5.27;1.80;;;11.50;99.90;;;;;;5104295;28;20459;-82
2022/09/19 02:47:28;;;;;;;9.20;1.90;;;11.50;99.90;;;;;;5103535;28;20467;-81
2022/09/19 02:50:04;;;;;;;4.77;1.60;;;11.50;99.90;;;;;;5105968;28;20428;-82
2022/09/19 02:52:34;;;;;;;5.47;1.50;;;11.50;99.90;;;;;;5103215;28;20473;-81
2022/09/19 02:55:18;;;;;;;5.73;1.83;;;11.50;99.90;;;;;;5104808;28;20444;-82
2022/09/19 02:57:49;;;;;;;5.33;1.60;;;11.50;99.90;;;;;;5104095;28;20447;-83
2022/09/19 03:00:20;;;;;;;4.27;1.30;;;11.50;99.90;;;;;;5104433;28;20506;-82
2022/09/19 03:02:56;;;;;;;8.07;1.93;;;11.50;99.90;;;;;;5107087;28;20440;-82
2022/09/19 03:05:33;;;;;;;5.50;2.00;;;11.50;99.90;;;;;;5103999;28;20448;-83
2022/09/19 03:08:04;;;;;;;5.13;2.27;;;11.50;99.90;;;;;;5103951;28;20455;-82
2022/09/19 03:10:36;;;;;;;6.30;2.37;;;11.50;99.90;;;;;;5108319;28;20455;-81
2022/09/19 03:13:13;;;;;;;5.07;1.70;;;11.50;99.90;;;;;;5104967;28;20472;-82
2022/09/19 03:15:47;;;;;;;8.00;2.17;;;11.50;99.90;;;;;;5105309;28;20487;-81
2022/09/19 03:18:22;;;;;;;5.53;2.37;;;11.50;99.90;;;;;;5104825;28;20452;-81
2022/09/19 03:20:59;;;;;;;6.00;2.30;;;11.40;99.90;;;;;;5104044;28;20438;-81
2022/09/19 03:23:34;;;;;;;6.47;2.33;;;11.40;99.90;;;;;;5104119;28;20976;-81
2022/09/19 03:26:03;;;;;;;5.80;2.30;;;11.40;99.90;;;;;;5104233;28;20434;-81
2022/09/19 03:28:31;;;;;;;6.93;2.30;;;11.40;99.90;;;;;;5103575;28;20491;-81
2022/09/19 03:31:00;;;;;;;5.90;2.20;;;11.40;99.90;;;;;;5103311;28;20989;-81
2022/09/19 03:33:31;;;;;;;5.70;2.30;;;11.30;99.90;;;;;;5104434;28;20456;-81
2022/09/19 03:36:06;;;;;;;5.67;2.17;;;11.40;99.90;;;;;;5104214;28;20436;-81
2022/09/19 03:38:36;;;;;;;7.80;2.30;;;11.30;99.90;;;;;;5103955;28;20433;-81
2022/09/19 03:41:05;;;;;;;11.10;3.10;;;11.40;99.90;;;;;;5104004;28;20440;-82
2022/09/19 03:43:34;;;;;;;5.80;2.77;;;11.30;99.90;;;;;;5103773;28;20456;-80
2022/09/19 03:46:04;;;;;;;8.57;2.50;;;11.40;99.90;;;;;;5103785;28;20451;-83
2022/09/19 03:48:35;;;;;;;5.57;2.70;;;11.30;99.90;;;;;;5103734;28;20543;-82
2022/09/19 03:51:03;;;;;;;8.10;2.50;;;11.30;99.90;;;;;;5103604;28;20518;-80
2022/09/19 03:53:34;;;;;;;8.60;3.00;;;11.30;99.90;;;;;;5102987;28;20452;-82
2022/09/19 03:56:04;;;;;;;9.50;3.00;;;11.30;99.90;;;;;;5103297;28;20463;-82
2022/09/19 03:58:35;;;;;;;7.03;2.40;;;11.30;99.90;;;;;;5103853;28;20479;-82
2022/09/19 04:01:06;;;;;;;10.43;2.63;;;11.30;99.90;;;;;;5101912;28;20437;-82
2022/09/19 04:03:38;;;;;;;9.20;3.10;;;11.30;99.90;;;;;;5101328;28;20444;-82
2022/09/19 04:06:10;;;;;;;6.60;2.57;;;11.30;99.90;;;;;;5102863;28;20436;-81
2022/09/19 04:08:38;;;;;;;4.23;2.20;;;11.20;99.90;;;;;;5104671;28;20945;-82
2022/09/19 04:11:07;;;;;;;7.70;2.70;;;11.20;99.90;;;;;;5102542;28;20543;-82
2022/09/19 04:13:37;;;;;;;6.80;2.50;;;11.20;99.90;;;;;;5106865;28;20495;-82
2022/09/19 04:16:13;;;;;;;9.83;2.77;;;11.20;99.90;;;;;;5105530;28;20440;-83
2022/09/19 04:18:47;;;;;;;6.67;2.73;;;11.20;99.90;;;;;;5110191;28;20455;-82
2022/09/19 04:21:34;;;;;;;12.57;3.70;;;11.10;99.90;;;;;;5115182;28;20972;-82
2022/09/19 04:24:26;;;;;;;9.90;3.40;;;11.10;99.90;;;;;;5115496;28;20440;-82
2022/09/19 04:27:13;;;;;;;6.30;2.70;;;11.10;99.90;;;;;;5116067;28;20443;-82
2022/09/19 04:29:48;;;;;;;9.03;3.13;;;11.00;99.90;;;;;;5113611;28;20514;-82
2022/09/19 04:32:16;;;;;;;9.57;3.17;;;11.00;99.90;;;;;;5113271;28;20476;-83
2022/09/19 04:34:50;;;;;;;7.47;3.10;;;11.00;99.90;;;;;;5113001;28;20492;-83
2022/09/19 04:37:18;;;;;;;7.97;3.03;;;10.90;99.90;;;;;;5113088;28;20448;-83
2022/09/19 04:39:53;;;;;;;10.00;2.83;;;10.90;99.90;;;;;;5113399;28;20431;-82
2022/09/19 04:42:21;;;;;;;9.40;2.93;;;10.80;99.90;;;;;;5111844;28;20902;-83
2022/09/19 04:44:53;;;;;;;8.43;3.13;;;10.80;99.90;;;;;;5111624;28;20460;-82
2022/09/19 04:47:37;;;;;;;8.90;3.67;;;10.80;99.90;;;;;;5112014;28;20443;-82
2022/09/19 04:50:09;;;;;;;15.37;4.60;;;10.80;99.90;;;;;;5112647;28;20424;-82
2022/09/19 04:52:39;;;;;;;12.07;3.27;;;10.70;99.90;;;;;;5113276;28;20452;-82
2022/09/19 04:55:10;;;;;;;8.57;2.77;;;10.70;99.90;;;;;;5111462;28;20527;-82
2022/09/19 04:57:38;;;;;;;10.53;3.93;;;10.70;99.90;;;;;;5109005;28;20436;-81
2022/09/19 05:00:12;;;;;;;10.37;3.50;;;10.70;99.90;;;;;;5109378;28;20482;-81
2022/09/19 05:02:56;;;;;;;7.63;3.33;;;10.70;99.90;;;;;;5109537;28;20468;-82
2022/09/19 05:05:26;;;;;;;5.73;2.70;;;10.60;99.90;;;;;;5109614;28;20436;-81
2022/09/19 05:07:54;;;;;;;11.97;3.67;;;10.60;99.90;;;;;;5109072;28;20489;-82
2022/09/19 05:10:23;;;;;;;11.83;3.77;;;10.50;99.90;;;;;;5107943;28;20442;-82
2022/09/19 05:12:51;;;;;;;8.40;3.80;;;10.50;99.90;;;;;;5107683;28;20463;-82
2022/09/19 05:15:20;;;;;;;9.47;3.57;;;10.50;99.90;;;;;;5107241;28;20468;-81
2022/09/19 05:17:54;;;;;;;7.97;3.07;;;10.50;99.90;;;;;;5101248;28;20451;-81
2022/09/19 05:20:25;;;;;;;14.83;4.30;;;10.50;99.90;;;;;;5100390;28;20857;-81
2022/09/19 05:23:00;;;;;;;11.87;4.23;;;10.50;99.90;;;;;;5103558;28;20495;-82
2022/09/19 05:25:29;;;;;;;12.43;4.20;;;10.50;99.90;;;;;;5107903;28;20763;-82
2022/09/19 05:28:04;;;;;;;9.67;3.40;;;10.40;99.90;;;;;;5108375;28;20451;-82
2022/09/19 05:30:33;;;;;;;12.27;4.17;;;10.40;99.90;;;;;;5102848;28;20490;-82
2022/09/19 05:33:04;;;;;;;13.73;4.23;;;10.40;99.90;;;;;;5101280;28;21023;-82
2022/09/19 05:35:40;;;;;;;11.50;4.37;;;10.40;99.90;;;;;;5099783;28;20464;-82
2022/09/19 05:38:41;;;;;;;7.47;3.60;;;10.50;99.90;;;;;;5099467;28;20440;-81
2022/09/19 05:41:28;;;;;;;11.07;3.77;;;10.40;99.90;;;;;;5101137;28;20459;-81
2022/09/19 05:44:01;;;;;;;8.80;3.37;;;10.30;99.90;;;;;;5099917;28;20498;-81
2022/09/19 05:46:30;;;;;;;11.87;3.57;;;10.40;99.90;;;;;;5099636;28;20861;-81
2022/09/19 05:48:59;;;;;;;13.80;4.20;;;10.30;99.90;;;;;;5099716;28;20873;-81
2022/09/19 05:51:28;;;;;;;11.97;3.90;;;10.40;99.90;;;;;;5099698;28;20464;-81
2022/09/19 05:53:56;;;;;;;13.17;4.57;;;10.30;99.90;;;;;;5099340;28;20464;-81
2022/09/19 05:56:45;;;;;;;14.00;4.47;;;10.40;99.90;;;;;;5100482;28;20773;-81
2022/09/19 05:59:13;;;;;;;15.77;5.50;;;10.40;99.90;;;;;;5098700;28;20440;-80
2022/09/19 06:01:44;;;;;;;11.40;3.80;;;10.40;99.90;;;;;;5099471;28;20529;-81
2022/09/19 06:04:31;;;;;;;14.80;3.80;;;10.40;99.90;;;;;;5100248;28;20444;-81
2022/09/19 06:07:00;;;;;;;10.33;4.17;;;10.40;99.90;;;;;;5098272;28;20471;-80
2022/09/19 06:09:30;;;;;;;13.10;4.97;;;10.40;99.90;;;;;;5098146;28;20444;-81
2022/09/19 06:12:00;;;;;;;14.73;4.17;;;10.50;99.90;;;;;;5099520;28;21003;-80
2022/09/19 06:14:35;;;;;;;14.30;4.77;;;10.50;99.90;;;;;;5098465;28;20505;-80
2022/09/19 06:17:05;;;;;;;13.20;4.70;;;10.70;99.90;;;;;;5099217;28;20497;-82
2022/09/19 06:19:40;;;;;;;13.17;4.77;;;10.80;99.90;;;;;;5098546;28;20447;-81
2022/09/19 06:22:17;;;;;;;8.93;3.57;;;10.90;99.90;;;;;;5098244;28;20467;-81
2022/09/19 06:24:50;;;;;;;11.27;5.07;;;11.10;99.90;;;;;;5098263;28;20447;-80
2022/09/19 06:27:20;;;;;;;12.00;3.73;;;11.20;99.90;;;;;;5098324;28;20440;-81
2022/09/19 06:29:51;;;;;;;14.73;3.93;;;11.30;99.90;;;;;;5097625;28;20485;-80
2022/09/19 06:32:22;;;;;;;13.00;4.47;;;11.30;99.90;;;;;;5099331;28;20465;-81
2022/09/19 06:35:12;;;;;;;12.67;4.20;;;11.40;99.90;;;;;;5098498;28;20867;-81
2022/09/19 06:37:41;;;;;;;10.50;4.13;;;11.40;99.90;;;;;;5098052;28;20494;-81
2022/09/19 06:40:13;;;;;;;11.83;3.90;;;11.40;99.90;;;;;;5098553;28;20459;-80
2022/09/19 06:43:00;;;;;;;13.37;4.10;;;11.40;99.90;;;;;;5098130;28;20468;-81
2022/09/19 06:46:09;;;;;;;10.97;4.20;;;11.40;99.90;;;;;;5097286;28;20988;-82
2022/09/19 06:48:44;;;;;;;12.60;4.00;;;11.40;99.90;;;;;;5097294;28;20444;-82
2022/09/19 06:51:45;;;;;;;9.90;3.80;;;11.50;99.90;;;;;;5060300;28;20964;-80
2022/09/19 06:54:14;;;;;;;12.40;4.23;;;11.50;99.90;;;;;;5097446;28;20478;-81
2022/09/19 06:56:47;;;;;;;12.53;4.57;;;11.50;99.90;;;;;;5097256;28;20470;-81
2022/09/19 06:59:16;;;;;;;12.60;4.63;;;11.50;99.90;;;;;;5098808;28;20444;-81
2022/09/19 07:01:46;;;;;;;13.10;4.70;;;11.50;99.90;;;;;;5097537;28;20559;-81
2022/09/19 07:04:14;;;;;;;15.60;4.40;;;11.60;99.90;;;;;;5097252;28;20961;-81
2022/09/19 07:07:08;;;;;;;16.87;5.27;;;11.60;99.90;;;;;;5097457;28;20468;-81
2022/09/19 07:09:43;;;;;;;19.97;4.00;;;11.60;99.90;;;;;;5097035;28;20435;-81
2022/09/19 07:12:13;;;;;;;13.40;5.10;;;11.80;99.90;;;;;;5097944;28;20472;-81
2022/09/19 07:14:50;;;;;;;12.90;4.90;;;11.70;99.90;;;;;;5097328;28;20460;-82
2022/09/19 07:17:18;;;;;;;14.77;5.57;;;11.80;99.90;;;;;;5097208;28;20455;-79
2022/09/19 07:19:49;;;;;;;12.23;4.20;;;11.80;99.90;;;;;;5096946;28;20437;-79
2022/09/19 07:22:36;;;;;;;13.60;3.90;;;11.90;99.90;;;;;;5098483;28;20471;-82
2022/09/19 07:25:19;;;;;;;17.43;5.33;;;12.00;99.90;;;;;;5096363;28;20941;-80
2022/09/19 07:27:56;;;;;;;14.00;4.33;;;12.00;99.90;;;;;;5096070;28;20937;-80
2022/09/19 07:30:31;;;;;;;10.40;4.17;;;12.00;99.90;;;;;;5096248;28;20451;-79
2022/09/19 07:33:03;;;;;;;10.73;4.53;;;12.10;99.90;;;;;;5096524;28;20546;-81
2022/09/19 07:35:35;;;;;;;19.43;5.60;;;12.20;99.90;;;;;;5097144;28;20510;-81
2022/09/19 07:38:06;;;;;;;17.33;4.97;;;12.20;99.90;;;;;;5097176;28;20443;-79
2022/09/19 07:40:53;;;;;;;13.00;4.07;;;12.20;99.90;;;;;;5095924;28;20443;-80
2022/09/19 07:43:28;;;;;;;13.53;4.23;;;12.30;99.90;;;;;;5096389;28;20503;-83
2022/09/19 07:46:28;;;;;;;10.90;4.70;;;12.40;99.90;;;;;;5095264;28;20470;-81
2022/09/19 07:48:56;;;;;;;10.63;3.90;;;12.60;99.90;;;;;;5097593;28;20436;-81
2022/09/19 07:51:45;;;;;;;9.83;3.83;;;12.60;99.90;;;;;;5096847;28;20897;-81
2022/09/19 07:54:14;;;;;;;10.97;3.60;;;12.80;99.90;;;;;;5096723;28;20848;-81
2022/09/19 07:56:43;;;;;;;15.90;3.93;;;12.90;99.90;;;;;;5098136;28;20476;-80
2022/09/19 07:59:13;;;;;;;14.70;4.17;;;13.10;99.90;;;;;;5097049;28;20513;-80
2022/09/19 08:01:54;;;;;;;9.50;3.47;;;13.20;99.90;;;;;;5097761;28;20472;-81
2022/09/19 08:04:37;;;;;;;14.33;3.93;;;13.40;99.90;;;;;;5096849;28;20527;-80
2022/09/19 08:07:05;;;;;;;13.93;3.37;;;13.50;99.90;;;;;;5097911;28;20440;-81
2022/09/19 08:09:35;;;;;;;11.60;3.77;;;13.70;99.90;;;;;;5099281;28;20824;-81
2022/09/19 08:12:22;;;;;;;14.10;4.30;;;13.80;99.90;;;;;;5100946;28;20459;-81
2022/09/19 08:15:02;;;;;;;11.00;3.50;;;14.00;99.90;;;;;;5099008;28;20443;-80
2022/09/19 08:17:30;;;;;;;14.30;3.83;;;14.10;99.90;;;;;;5098910;28;20440;-81
2022/09/19 08:19:59;;;;;;;11.40;3.93;;;14.20;99.90;;;;;;5098587;28;20452;-82
2022/09/19 08:22:29;;;;;;;9.20;3.23;;;14.30;99.90;;;;;;5098613;28;20460;-84
2022/09/19 08:25:03;;;;;;;11.33;3.70;;;14.40;99.90;;;;;;5100740;28;20443;-82
2022/09/19 08:27:33;;;;;;;11.67;3.13;;;14.40;99.90;;;;;;5098952;28;20817;-81
2022/09/19 08:30:04;;;;;;;9.07;3.03;;;14.50;99.90;;;;;;5099849;28;20956;-81
2022/09/19 08:32:34;;;;;;;11.97;3.80;;;14.70;99.90;;;;;;5101797;28;20468;-82
2022/09/19 08:35:04;;;;;;;14.10;3.60;;;14.70;99.90;;;;;;5105042;28;20407;-81
2022/09/19 08:37:33;;;;;;;11.50;3.10;;;14.90;99.90;;;;;;5102156;28;20441;-82
2022/09/19 08:40:18;;;;;;;13.00;3.33;;;15.00;99.90;;;;;;5103440;28;20448;-82
2022/09/19 08:43:02;;;;;;;12.97;4.70;;;15.10;99.90;;;;;;5103807;28;20468;-83
2022/09/19 08:45:52;;;;;;;10.27;2.93;;;15.20;99.90;;;;;;5102173;28;20466;-79
2022/09/19 08:48:25;;;;;;;9.87;2.93;;;15.30;99.90;;;;;;5102705;28;20451;-82
2022/09/19 08:51:00;;;;;;;10.93;3.60;;;15.40;99.90;;;;;;5100655;28;20445;-85
2022/09/19 08:53:32;;;;;;;12.07;3.67;;;15.50;99.90;;;;;;5100840;28;20961;-82
2022/09/19 08:56:02;;;;;;;9.87;3.07;;;15.50;99.90;;;;;;5100933;28;20514;-81
2022/09/19 08:58:37;;;;;;;12.40;3.90;;;15.60;99.90;;;;;;5102586;28;20776;-81
2022/09/19 09:01:15;;;;;;;11.23;3.40;;;15.70;99.90;;;;;;5104215;28;20443;-82
2022/09/19 09:04:23;;;;;;;10.20;3.40;;;15.70;99.90;;;;;;5103963;28;20431;-83
2022/09/19 09:07:12;;;;;;;15.90;4.03;;;15.70;99.90;;;;;;5105093;28;20423;-85
2022/09/19 09:10:11;;;;;;;9.23;2.70;;;15.80;99.90;;;;;;5113902;28;20424;-83
2022/09/19 09:12:51;;;;;;;10.27;3.63;;;15.90;99.90;;;;;;5107247;28;20531;-84
2022/09/19 09:15:25;;;;;;;14.30;3.40;;;16.00;99.90;;;;;;5106683;28;20456;-82
2022/09/19 09:18:42;;;;;;;12.40;2.90;;;16.10;99.90;;;;;;5106145;28;20432;-84
2022/09/19 09:21:21;;;;;;;9.60;3.40;;;16.20;99.90;;;;;;5105592;28;20461;-82
2022/09/19 09:23:58;;;;;;;11.33;3.43;;;16.20;99.90;;;;;;5106308;28;20444;-85
2022/09/19 09:27:01;;;;;;;13.37;4.37;;;16.30;99.90;;;;;;5106347;28;20436;-83
2022/09/19 09:29:36;;;;;;;11.20;3.27;;;16.40;99.90;;;;;;5104098;28;20456;-83
2022/09/19 09:32:17;;;;;;;16.33;4.40;;;16.40;99.90;;;;;;5104647;28;20445;-83
2022/09/19 09:34:58;;;;;;;13.23;3.27;;;16.50;99.90;;;;;;5104384;28;20517;-84
2022/09/19 09:37:32;;;;;;;13.87;3.90;;;16.60;99.90;;;;;;5103696;28;20522;-82
2022/09/19 09:40:13;;;;;;;14.80;4.27;;;16.70;99.90;;;;;;5103983;28;20505;-82
2022/09/19 09:42:50;;;;;;;14.97;3.90;;;16.80;99.90;;;;;;5103372;28;20449;-82
2022/09/19 09:45:30;;;;;;;14.17;2.93;;;16.90;99.90;;;;;;5105141;28;20443;-83
2022/09/19 09:48:09;;;;;;;12.03;3.13;;;16.90;99.90;;;;;;5104884;28;20440;-81
2022/09/19 09:51:00;;;;;;;12.10;3.33;;;17.00;99.90;;;;;;5104194;28;20448;-82
2022/09/19 09:53:44;;;;;;;13.40;3.80;;;17.00;99.90;;;;;;5110433;28;20444;-83
2022/09/19 09:56:21;;;;;;;12.40;2.70;;;17.00;99.90;;;;;;5114977;28;20438;-84
2022/09/19 09:59:07;;;;;;;10.27;2.67;;;16.90;99.90;;;;;;5112534;28;20411;-84
2022/09/19 10:04:35;;;;;;;12.63;3.03;;;16.60;99.90;;;;;;5110247;28;20447;-82
2022/09/19 10:07:24;;;;;;;10.30;3.87;;;16.40;99.90;;;;;;5111642;28;20429;-83
2022/09/19 10:09:59;;;;;;;7.57;2.50;;;16.40;99.90;;;;;;5109430;28;20472;-82
2022/09/19 10:12:33;;;;;;;11.00;2.63;;;16.40;99.90;;;;;;5111360;28;20446;-82
2022/09/19 10:15:26;;;;;;;12.33;3.77;;;16.40;99.90;;;;;;5106093;28;20436;-81
2022/09/19 10:18:07;;;;;;;10.17;3.07;;;16.50;99.90;;;;;;5110799;28;20443;-82
2022/09/19 10:20:49;;;;;;;9.20;3.07;;;16.50;99.90;;;;;;5112081;28;20407;-85
2022/09/19 10:23:24;;;;;;;14.73;4.00;;;16.40;99.90;;;;;;5114366;28;20442;-83
2022/09/19 10:26:01;;;;;;;7.97;2.70;;;16.40;99.90;;;;;;5112670;28;20418;-84
2022/09/19 10:28:37;;;;;;;10.93;3.73;;;16.30;99.90;;;;;;5106440;28;20448;-84
2022/09/19 10:31:34;;;;;;;9.37;2.63;;;16.20;99.90;;;;;;5103204;28;20477;-85
2022/09/19 10:34:27;;;;;;;15.20;3.03;;;16.10;99.90;;;;;;5102625;28;20451;-84
2022/09/19 10:37:02;;;;;;;6.97;2.50;;;15.90;99.90;;;;;;5099272;28;20803;-84
2022/09/19 10:39:44;;;;;;;9.73;2.83;;;15.70;99.90;;;;;;5096587;28;20438;-82
2022/09/19 10:42:37;;;;;;;7.33;2.30;;;15.40;99.90;;;;;;5096011;28;20560;-82
2022/09/19 10:45:25;;;;;;;8.30;2.30;;;15.10;99.90;;;;;;5095731;28;20440;-80
2022/09/19 10:47:59;;;;;;;7.10;2.60;;;14.80;99.90;;;;;;5097090;28;20436;-81
2022/09/19 10:50:30;;;;;;;10.30;2.60;;;14.60;99.90;;;;;;5098602;28;20444;-83
2022/09/19 10:53:06;;;;;;;9.23;2.70;;;14.50;99.90;;;;;;5101417;28;20506;-84
2022/09/19 10:55:38;;;;;;;8.83;2.53;;;14.40;99.90;;;;;;5101186;28;20968;-84
2022/09/19 10:58:19;;;;;;;10.30;2.77;;;14.30;99.90;;;;;;5098847;28;20992;-83
2022/09/19 11:00:58;;;;;;;10.40;2.97;;;14.30;99.90;;;;;;5098311;28;20451;-84
2022/09/19 11:03:35;;;;;;;6.33;2.70;;;14.30;99.90;;;;;;5097872;28;20996;-83
2022/09/19 11:06:07;;;;;;;8.67;2.70;;;14.20;99.90;;;;;;5097415;28;20945;-83
2022/09/19 11:08:44;;;;;;;8.27;2.50;;;14.20;99.90;;;;;;5098363;28;20470;-83
2022/09/19 11:11:24;;;;;;;9.27;2.80;;;14.20;99.90;;;;;;5098015;28;20479;-84
2022/09/19 11:14:18;;;;;;;7.27;2.80;;;14.20;99.90;;;;;;5097723;28;20450;-80
2022/09/19 11:17:22;;;;;;;7.33;2.50;;;14.20;99.90;;;;;;5097654;28;20468;-83
2022/09/19 11:20:10;;;;;;;7.10;2.60;;;14.30;99.90;;;;;;5097466;28;20439;-83
2022/09/19 11:23:07;;;;;;;8.20;3.30;;;14.30;99.90;;;;;;5096921;28;20485;-83
2022/09/19 11:25:42;;;;;;;10.40;2.93;;;14.40;99.90;;;;;;5082545;28;20972;-82
2022/09/19 11:28:23;;;;;;;7.37;2.57;;;14.40;99.90;;;;;;5097440;28;20435;-79
2022/09/19 11:31:05;;;;;;;6.40;2.80;;;14.40;99.90;;;;;;5096984;28;20471;-82
2022/09/19 11:33:46;;;;;;;12.43;3.60;;;14.50;99.90;;;;;;5097621;28;20491;-81
2022/09/19 11:36:51;;;;;;;8.33;3.00;;;14.50;99.90;;;;;;5096528;28;20533;-80
2022/09/19 11:39:31;;;;;;;11.37;2.83;;;14.60;99.90;;;;;;5096131;28;20475;-82
2022/09/19 11:42:25;;;;;;;8.33;2.90;;;14.70;99.90;;;;;;5096663;28;20521;-80
2022/09/19 11:45:09;;;;;;;9.87;3.63;;;14.80;99.90;;;;;;5096653;28;20524;-80
2022/09/19 11:48:09;;;;;;;10.83;3.00;;;15.00;99.90;;;;;;5097742;28;20420;-81
2022/09/19 11:51:12;;;;;;;10.33;3.07;;;15.10;99.90;;;;;;5096225;28;20461;-80
2022/09/19 11:54:09;;;;;;;9.07;2.50;;;15.10;99.90;;;;;;5096034;28;20443;-81
2022/09/19 11:57:01;;;;;;;7.70;2.07;;;15.10;99.90;;;;;;5078439;28;20468;-82
2022/09/19 11:59:45;;;;;;;7.33;2.23;;;15.10;99.90;;;;;;5085045;28;20460;-83
2022/09/19 12:02:36;;;;;;;5.70;2.00;;;15.00;99.90;;;;;;5096734;28;20551;-84
2022/09/19 12:05:17;;;;;;;4.93;1.60;;;14.80;99.90;;;;;;5096492;28;20812;-84
2022/09/19 12:08:00;;;;;;;4.47;1.50;;;14.70;99.90;;;;;;5095381;28;20440;-84
2022/09/19 12:10:33;;;;;;;5.50;1.70;;;14.50;99.90;;;;;;5095098;28;20467;-80
2022/09/19 12:13:06;;;;;;;6.10;2.00;;;14.30;99.90;;;;;;5095490;28;20464;-82
2022/09/19 12:15:44;;;;;;;9.10;2.37;;;14.30;99.90;;;;;;5095933;28;20937;-82
2022/09/19 12:18:22;;;;;;;7.70;2.73;;;14.20;99.90;;;;;;5095434;28;20882;-83
2022/09/19 12:20:56;;;;;;;9.17;3.00;;;14.10;99.90;;;;;;5095518;28;20450;-82
2022/09/19 12:26:30;;;;;;;6.27;2.23;;;14.00;99.90;;;;;;5096161;28;20455;-83
2022/09/19 12:29:09;;;;;;;6.70;2.57;;;14.00;99.90;;;;;;5095308;28;20490;-81
2022/09/19 12:31:45;;;;;;;8.83;2.40;;;14.00;99.90;;;;;;5095695;28;20468;-84
2022/09/19 12:34:29;;;;;;;6.67;2.70;;;14.00;99.90;;;;;;5102009;28;20474;-83
2022/09/19 12:37:02;;;;;;;6.53;2.97;;;14.00;99.90;;;;;;5102765;28;20436;-83
2022/09/19 12:39:38;;;;;;;9.00;2.33;;;14.00;99.90;;;;;;5102270;28;20540;-84
2022/09/19 12:42:12;;;;;;;11.23;2.93;;;14.10;99.90;;;;;;5102500;28;20558;-84
2022/09/19 12:44:53;;;;;;;8.80;2.77;;;14.20;99.90;;;;;;5103832;28;20497;-83
2022/09/19 12:47:32;;;;;;;11.00;3.10;;;14.20;99.90;;;;;;5101655;28;20432;-82
2022/09/19 12:50:21;;;;;;;14.30;3.33;;;14.30;99.90;;;;;;5102317;28;20877;-84
2022/09/19 12:53:01;;;;;;;11.63;3.30;;;14.50;99.90;;;;;;5101881;28;20499;-83
2022/09/19 12:55:35;;;;;;;11.17;3.80;;;14.60;99.90;;;;;;5101068;28;20558;-85
2022/09/19 12:58:10;;;;;;;10.60;2.90;;;14.70;99.90;;;;;;5102868;28;20492;-82
2022/09/19 13:00:42;;;;;;;14.40;3.97;;;14.80;99.90;;;;;;5105741;28;20475;-82
2022/09/19 13:03:21;;;;;;;12.13;3.63;;;15.00;99.90;;;;;;5109413;28;20525;-83
2022/09/19 13:05:55;;;;;;;11.00;3.03;;;15.10;99.90;;;;;;5107342;28;20407;-84
2022/09/19 13:08:29;;;;;;;12.93;3.17;;;15.20;99.90;;;;;;5107925;28;20432;-82
2022/09/19 13:11:08;;;;;;;11.27;4.17;;;15.20;99.90;;;;;;5106815;28;20971;-82
2022/09/19 13:13:42;;;;;;;16.60;2.87;;;15.20;99.90;;;;;;5106984;28;20444;-83
2022/09/19 13:16:13;;;;;;;10.80;3.23;;;15.10;99.90;;;;;;5108249;28;20783;-82
2022/09/19 13:24:37;;;;;;;9.67;3.23;;;15.20;99.90;;;;;;5106604;28;20443;-82
2022/09/19 13:27:06;;;;;;;12.03;3.23;;;15.20;99.90;;;;;;5105636;28;20427;-82
2022/09/19 13:29:46;;;;;;;8.07;2.73;;;15.20;99.90;;;;;;5107238;28;20448;-82
2022/09/19 13:32:53;;;;;;;9.47;2.93;;;15.20;99.90;;;;;;5106347;28;20463;-83
2022/09/19 13:35:24;;;;;;;11.33;2.50;;;15.20;99.90;;;;;;5076730;28;20490;-81
2022/09/19 13:38:22;;;;;;;9.87;2.23;;;15.20;99.90;;;;;;5104293;28;20439;-81
2022/09/19 13:41:01;;;;;;;8.17;2.40;;;15.20;99.90;;;;;;5106606;28;20419;-80
2022/09/19 13:43:38;;;;;;;9.17;2.90;;;15.20;99.90;;;;;;5106878;28;20478;-82
2022/09/19 13:46:11;;;;;;;11.23;2.90;;;15.10;99.90;;;;;;5105890;28;20520;-82
2022/09/19 13:48:47;;;;;;;13.43;3.57;;;15.10;99.90;;;;;;5105858;28;20449;-82
2022/09/19 13:51:29;;;;;;;9.43;3.13;;;15.10;99.90;;;;;;5104136;28;20436;-84
2022/09/19 13:54:33;;;;;;;10.27;2.57;;;15.10;99.90;;;;;;5105181;28;20444;-80